Terminal Aerodrome Forecast
Issued by NWS Missoula, MT

Home | Current Version | Previous Version | Text Only | Print | Product List | Glossary On
Versions: 1 2 3 4 5 6 7 8 9 10 11 12 13 14 15 16 17
968
FTUS45 KMSO 171324 AAA
TAFMSO
TAF AMD
KMSO 171324Z 1713/1812 00000KT 5SM HZ VCFG SKC
      TEMPO 1714/1717 3SM BR SCT002
     FM171800 VRB03KT P6SM BKN070
     FM172100 VRB03KT P6SM VCSH BKN060=

USA.gov is the U.S. government's official web portal to all federal, state and local government web resources and services.